sensor_id;sensor_type;location;lat;lon;timestamp;pressure;altitude;pressure_sealevel;temperature;humidity
17764;BME280;22245;52.832;13.816;2023-01-31T00:00:49;101034.25;;;4.31;63.35
17764;BME280;22245;52.832;13.816;2023-01-31T00:04:11;101033.16;;;4.35;63.05
17764;BME280;22245;52.832;13.816;2023-01-31T00:07:33;101043.09;;;4.30;63.51
17764;BME280;22245;52.832;13.816;2023-01-31T00:10:57;101039.88;;;4.25;62.95
17764;BME280;22245;52.832;13.816;2023-01-31T00:14:20;101043.09;;;4.30;63.21
17764;BME280;22245;52.832;13.816;2023-01-31T00:17:42;101034.91;;;4.34;63.04
17764;BME280;22245;52.832;13.816;2023-01-31T00:21:06;101035.09;;;4.31;62.61
17764;BME280;22245;52.832;13.816;2023-01-31T00:24:28;101036.78;;;4.32;63.19
17764;BME280;22245;52.832;13.816;2023-01-31T00:27:50;101039.75;;;4.26;63.24
17764;BME280;22245;52.832;13.816;2023-01-31T00:31:13;101044.38;;;4.23;63.31
17764;BME280;22245;52.832;13.816;2023-01-31T00:34:36;101053.44;;;4.17;64.13
17764;BME280;22245;52.832;13.816;2023-01-31T00:37:57;101052.44;;;4.19;64.00
17764;BME280;22245;52.832;13.816;2023-01-31T00:41:21;101055.84;;;4.22;63.49
17764;BME280;22245;52.832;13.816;2023-01-31T00:44:43;101060.97;;;4.25;63.61
17764;BME280;22245;52.832;13.816;2023-01-31T00:48:06;101060.44;;;4.18;63.82
17764;BME280;22245;52.832;13.816;2023-01-31T00:51:29;101059.13;;;4.09;64.18
17764;BME280;22245;52.832;13.816;2023-01-31T00:54:50;101084.88;;;4.04;63.99
17764;BME280;22245;52.832;13.816;2023-01-31T00:58:12;101080.78;;;3.98;64.77
17764;BME280;22245;52.832;13.816;2023-01-31T01:01:34;101094.53;;;3.87;65.06
17764;BME280;22245;52.832;13.816;2023-01-31T01:04:58;101102.50;;;3.86;65.00
17764;BME280;22245;52.832;13.816;2023-01-31T01:08:20;101115.97;;;3.80;65.89
17764;BME280;22245;52.832;13.816;2023-01-31T01:11:42;101115.66;;;3.86;65.78
17764;BME280;22245;52.832;13.816;2023-01-31T01:15:05;101116.38;;;3.89;66.01
17764;BME280;22245;52.832;13.816;2023-01-31T01:18:26;101128.53;;;3.92;64.89
17764;BME280;22245;52.832;13.816;2023-01-31T01:21:53;101128.53;;;3.92;65.99
17764;BME280;22245;52.832;13.816;2023-01-31T01:25:14;101130.53;;;3.87;64.91
17764;BME280;22245;52.832;13.816;2023-01-31T01:28:36;101119.16;;;3.86;65.86
17764;BME280;22245;52.832;13.816;2023-01-31T01:31:58;101127.13;;;3.85;65.64
17764;BME280;22245;52.832;13.816;2023-01-31T01:35:20;101133.28;;;3.85;66.15
17764;BME280;22245;52.832;13.816;2023-01-31T01:38:44;101135.34;;;3.79;65.62
17764;BME280;22245;52.832;13.816;2023-01-31T01:42:05;101132.50;;;3.83;66.36
17764;BME280;22245;52.832;13.816;2023-01-31T01:45:28;101136.34;;;3.76;66.19
17764;BME280;22245;52.832;13.816;2023-01-31T01:48:53;101151.09;;;3.80;65.95
17764;BME280;22245;52.832;13.816;2023-01-31T01:52:15;101150.78;;;3.86;65.61
17764;BME280;22245;52.832;13.816;2023-01-31T01:55:41;101156.97;;;3.85;66.12
17764;BME280;22245;52.832;13.816;2023-01-31T01:59:07;101166.59;;;3.86;66.08
17764;BME280;22245;52.832;13.816;2023-01-31T02:02:30;101166.59;;;3.86;65.56
17764;BME280;22245;52.832;13.816;2023-01-31T02:05:54;101176.44;;;3.83;65.41
17764;BME280;22245;52.832;13.816;2023-01-31T02:09:20;101174.31;;;3.72;65.82
17764;BME280;22245;52.832;13.816;2023-01-31T02:12:47;101170.75;;;3.73;65.99
17764;BME280;22245;52.832;13.816;2023-01-31T02:16:09;101181.28;;;3.73;66.19
17764;BME280;22245;52.832;13.816;2023-01-31T02:19:36;101175.03;;;3.75;66.46
17764;BME280;22245;52.832;13.816;2023-01-31T02:23:20;101180.22;;;3.77;66.20
17764;BME280;22245;52.832;13.816;2023-01-31T02:27:04;101202.81;;;3.64;66.73
17764;BME280;22245;52.832;13.816;2023-01-31T02:34:50;101224.91;;;3.61;67.14
17764;BME280;22245;52.832;13.816;2023-01-31T02:38:26;101233.66;;;3.61;66.85
17764;BME280;22245;52.832;13.816;2023-01-31T02:41:54;101255.44;;;3.65;66.46
17764;BME280;22245;52.832;13.816;2023-01-31T02:45:23;101237.94;;;3.64;66.43
17764;BME280;22245;52.832;13.816;2023-01-31T02:48:52;101233.13;;;3.72;66.03
17764;BME280;22245;52.832;13.816;2023-01-31T02:52:19;101250.41;;;3.78;66.61
17764;BME280;22245;52.832;13.816;2023-01-31T02:55:54;101246.22;;;3.74;66.57
17764;BME280;22245;52.832;13.816;2023-01-31T02:59:38;101247.94;;;3.75;66.69
17764;BME280;22245;52.832;13.816;2023-01-31T03:03:00;101253.13;;;3.76;67.02
17764;BME280;22245;52.832;13.816;2023-01-31T03:06:49;101250.88;;;3.69;67.00
17764;BME280;22245;52.832;13.816;2023-01-31T03:10:38;101250.50;;;3.76;67.09
17764;BME280;22245;52.832;13.816;2023-01-31T03:14:11;101252.22;;;3.78;67.46
17764;BME280;22245;52.832;13.816;2023-01-31T03:17:43;101257.28;;;3.82;67.49
17764;BME280;22245;52.832;13.816;2023-01-31T03:21:12;101261.88;;;3.77;66.32
17764;BME280;22245;52.832;13.816;2023-01-31T03:24:37;101259.41;;;3.74;66.81
17764;BME280;22245;52.832;13.816;2023-01-31T03:28:05;101255.47;;;3.83;66.88
17764;BME280;22245;52.832;13.816;2023-01-31T03:31:32;101257.69;;;3.73;67.54
17764;BME280;22245;52.832;13.816;2023-01-31T03:34:56;101260.88;;;3.80;67.50
17764;BME280;22245;52.832;13.816;2023-01-31T03:38:20;101270.03;;;3.72;67.45
17764;BME280;22245;52.832;13.816;2023-01-31T03:41:54;101283.81;;;3.78;68.54
17764;BME280;22245;52.832;13.816;2023-01-31T03:45:25;101282.84;;;3.80;68.39
17764;BME280;22245;52.832;13.816;2023-01-31T03:48:51;101297.63;;;3.83;68.14
17764;BME280;22245;52.832;13.816;2023-01-31T03:52:18;101289.16;;;3.76;68.23
17764;BME280;22245;52.832;13.816;2023-01-31T03:55:48;101295.19;;;3.78;68.71
17764;BME280;22245;52.832;13.816;2023-01-31T03:59:14;101292.66;;;3.76;68.54
17764;BME280;22245;52.832;13.816;2023-01-31T04:02:38;101292.34;;;3.83;68.69
17764;BME280;22245;52.832;13.816;2023-01-31T04:06:01;101295.28;;;3.76;69.23
17764;BME280;22245;52.832;13.816;2023-01-31T04:09:23;101297.97;;;3.75;69.15
17764;BME280;22245;52.832;13.816;2023-01-31T04:12:45;101291.78;;;3.76;69.11
17764;BME280;22245;52.832;13.816;2023-01-31T04:16:07;101292.72;;;3.75;69.36
17764;BME280;22245;52.832;13.816;2023-01-31T04:19:30;101292.47;;;3.62;69.52
17764;BME280;22245;52.832;13.816;2023-01-31T04:22:52;101294.19;;;3.63;70.02
17764;BME280;22245;52.832;13.816;2023-01-31T04:26:14;101297.22;;;3.54;70.07
17764;BME280;22245;52.832;13.816;2023-01-31T04:29:35;101297.50;;;3.47;70.55
17764;BME280;22245;52.832;13.816;2023-01-31T04:32:57;101301.78;;;3.50;70.06
17764;BME280;22245;52.832;13.816;2023-01-31T04:36:20;101306.13;;;3.51;70.17
17764;BME280;22245;52.832;13.816;2023-01-31T04:39:42;101318.72;;;3.44;70.06
17764;BME280;22245;52.832;13.816;2023-01-31T04:43:04;101320.13;;;3.32;70.54
17764;BME280;22245;52.832;13.816;2023-01-31T04:46:25;101333.09;;;3.37;70.59
17764;BME280;22245;52.832;13.816;2023-01-31T04:49:48;101339.16;;;3.39;70.39
17764;BME280;22245;52.832;13.816;2023-01-31T04:53:10;101331.31;;;3.38;70.21
17764;BME280;22245;52.832;13.816;2023-01-31T04:56:32;101343.69;;;3.36;70.68
17764;BME280;22245;52.832;13.816;2023-01-31T04:59:54;101354.31;;;3.34;70.86
17764;BME280;22245;52.832;13.816;2023-01-31T05:03:15;101356.34;;;3.27;70.84
17764;BME280;22245;52.832;13.816;2023-01-31T05:06:37;101340.50;;;3.29;71.03
17764;BME280;22245;52.832;13.816;2023-01-31T05:10:00;101351.03;;;3.29;71.03
17764;BME280;22245;52.832;13.816;2023-01-31T05:13:22;101343.19;;;3.27;71.26
17764;BME280;22245;52.832;13.816;2023-01-31T05:16:44;101350.88;;;3.32;70.98
17764;BME280;22245;52.832;13.816;2023-01-31T05:20:08;101355.44;;;3.28;71.31
17764;BME280;22245;52.832;13.816;2023-01-31T05:23:30;101349.56;;;3.22;71.22
17764;BME280;22245;52.832;13.816;2023-01-31T05:26:55;101346.94;;;3.22;71.27
17764;BME280;22245;52.832;13.816;2023-01-31T05:30:18;101350.44;;;3.22;71.74
17764;BME280;22245;52.832;13.816;2023-01-31T05:33:40;101361.75;;;3.24;71.53
17764;BME280;22245;52.832;13.816;2023-01-31T05:37:03;101373.34;;;3.20;71.84
17764;BME280;22245;52.832;13.816;2023-01-31T05:40:25;101369.78;;;3.21;72.10
17764;BME280;22245;52.832;13.816;2023-01-31T05:43:47;101375.97;;;3.20;71.95
17764;BME280;22245;52.832;13.816;2023-01-31T05:47:09;101372.59;;;3.16;72.10
17764;BME280;22245;52.832;13.816;2023-01-31T05:50:30;101373.75;;;3.11;73.11
17764;BME280;22245;52.832;13.816;2023-01-31T05:54:01;101385.06;;;3.13;73.08
17764;BME280;22245;52.832;13.816;2023-01-31T05:57:23;101376.44;;;3.09;73.76
17764;BME280;22245;52.832;13.816;2023-01-31T06:00:46;101375.59;;;3.09;73.44
17764;BME280;22245;52.832;13.816;2023-01-31T06:04:09;101374.69;;;3.10;73.88
17764;BME280;22245;52.832;13.816;2023-01-31T06:07:31;101365.91;;;3.09;73.96
17764;BME280;22245;52.832;13.816;2023-01-31T06:10:54;101380.78;;;3.10;74.32
17764;BME280;22245;52.832;13.816;2023-01-31T06:14:16;101392.31;;;3.08;74.30
17764;BME280;22245;52.832;13.816;2023-01-31T06:17:39;101389.00;;;3.02;74.86
17764;BME280;22245;52.832;13.816;2023-01-31T06:21:00;101387.06;;;3.08;75.07
17764;BME280;22245;52.832;13.816;2023-01-31T06:24:22;101396.78;;;3.06;75.63
17764;BME280;22245;52.832;13.816;2023-01-31T06:27:43;101384.28;;;3.11;74.81
17764;BME280;22245;52.832;13.816;2023-01-31T06:31:06;101385.13;;;3.11;75.81
17764;BME280;22245;52.832;13.816;2023-01-31T06:34:28;101388.69;;;3.10;76.10
17764;BME280;22245;52.832;13.816;2023-01-31T06:37:51;101385.84;;;3.15;75.76
17764;BME280;22245;52.832;13.816;2023-01-31T06:41:12;101384.00;;;3.17;76.18
17764;BME280;22245;52.832;13.816;2023-01-31T06:44:34;101385.53;;;3.23;76.41
17764;BME280;22245;52.832;13.816;2023-01-31T06:47:57;101387.16;;;3.25;75.64
17764;BME280;22245;52.832;13.816;2023-01-31T06:51:20;101390.44;;;3.30;75.87
17764;BME280;22245;52.832;13.816;2023-01-31T06:54:41;101383.97;;;3.38;76.19
17764;BME280;22245;52.832;13.816;2023-01-31T06:58:03;101394.59;;;3.36;76.09
17764;BME280;22245;52.832;13.816;2023-01-31T07:01:24;101384.63;;;3.43;75.35
17764;BME280;22245;52.832;13.816;2023-01-31T07:04:46;101388.06;;;3.45;75.51
17764;BME280;22245;52.832;13.816;2023-01-31T07:08:10;101390.47;;;3.50;75.58
17764;BME280;22245;52.832;13.816;2023-01-31T07:11:33;101405.44;;;3.49;75.53
17764;BME280;22245;52.832;13.816;2023-01-31T07:14:54;101393.97;;;3.50;75.32
17764;BME280;22245;52.832;13.816;2023-01-31T07:18:16;101397.38;;;3.52;76.06
17764;BME280;22245;52.832;13.816;2023-01-31T07:21:38;101400.03;;;3.52;76.48
17764;BME280;22245;52.832;13.816;2023-01-31T07:25:02;101390.31;;;3.53;76.26
17764;BME280;22245;52.832;13.816;2023-01-31T07:28:23;101391.34;;;3.50;76.75
17764;BME280;22245;52.832;13.816;2023-01-31T07:31:45;101397.44;;;3.51;76.62
17764;BME280;22245;52.832;13.816;2023-01-31T07:35:07;101391.34;;;3.50;77.12
17764;BME280;22245;52.832;13.816;2023-01-31T07:38:29;101385.69;;;3.58;77.21
17764;BME280;22245;52.832;13.816;2023-01-31T07:41:53;101387.41;;;3.59;77.10
17764;BME280;22245;52.832;13.816;2023-01-31T07:45:16;101383.50;;;3.68;77.30
17764;BME280;22245;52.832;13.816;2023-01-31T07:48:43;101384.09;;;3.74;76.54
17764;BME280;22245;52.832;13.816;2023-01-31T07:52:05;101399.03;;;3.74;76.77
17764;BME280;22245;52.832;13.816;2023-01-31T07:55:28;101401.75;;;3.72;76.64
17764;BME280;22245;52.832;13.816;2023-01-31T07:58:51;101389.06;;;3.81;76.63
17764;BME280;22245;52.832;13.816;2023-01-31T08:02:14;101402.75;;;3.89;76.63
17764;BME280;22245;52.832;13.816;2023-01-31T08:05:54;101406.16;;;3.91;77.50
17764;BME280;22245;52.832;13.816;2023-01-31T08:09:15;101401.75;;;3.91;77.72
17764;BME280;22245;52.832;13.816;2023-01-31T08:12:37;101394.53;;;3.95;77.95
17764;BME280;22245;52.832;13.816;2023-01-31T08:16:01;101386.72;;;3.94;78.80
17764;BME280;22245;52.832;13.816;2023-01-31T08:19:22;101399.75;;;3.97;79.02
17764;BME280;22245;52.832;13.816;2023-01-31T08:22:46;101386.78;;;3.92;79.26
17764;BME280;22245;52.832;13.816;2023-01-31T08:26:10;101383.16;;;3.95;79.50
17764;BME280;22245;52.832;13.816;2023-01-31T08:29:33;101386.44;;;4.00;80.13
17764;BME280;22245;52.832;13.816;2023-01-31T08:32:55;101391.69;;;4.00;80.39
17764;BME280;22245;52.832;13.816;2023-01-31T08:36:18;101379.31;;;4.02;80.97
17764;BME280;22245;52.832;13.816;2023-01-31T08:39:41;101390.47;;;4.07;80.82
17764;BME280;22245;52.832;13.816;2023-01-31T08:43:03;101388.00;;;4.04;80.95
17764;BME280;22245;52.832;13.816;2023-01-31T08:46:27;101386.84;;;4.10;81.44
17764;BME280;22245;52.832;13.816;2023-01-31T08:49:52;101383.34;;;4.09;81.73
17764;BME280;22245;52.832;13.816;2023-01-31T08:53:13;101383.03;;;4.15;81.89
17764;BME280;22245;52.832;13.816;2023-01-31T08:56:35;101372.38;;;4.18;81.42
17764;BME280;22245;52.832;13.816;2023-01-31T08:59:57;101374.09;;;4.19;81.89
17764;BME280;22245;52.832;13.816;2023-01-31T09:03:19;101382.63;;;4.25;81.99
17764;BME280;22245;52.832;13.816;2023-01-31T09:06:42;101381.41;;;4.32;81.81
17764;BME280;22245;52.832;13.816;2023-01-31T09:10:06;101375.09;;;4.34;81.17
17764;BME280;22245;52.832;13.816;2023-01-31T09:13:29;101374.09;;;4.37;81.08
17764;BME280;22245;52.832;13.816;2023-01-31T09:16:51;101371.47;;;4.37;81.25
17764;BME280;22245;52.832;13.816;2023-01-31T09:20:13;101375.81;;;4.38;81.54
17764;BME280;22245;52.832;13.816;2023-01-31T09:23:37;101361.78;;;4.38;80.93
17764;BME280;22245;52.832;13.816;2023-01-31T09:27:01;101351.78;;;4.44;81.24
17764;BME280;22245;52.832;13.816;2023-01-31T09:30:24;101357.81;;;4.46;80.73
17764;BME280;22245;52.832;13.816;2023-01-31T09:33:46;101343.94;;;4.43;80.83
17764;BME280;22245;52.832;13.816;2023-01-31T09:37:08;101345.56;;;4.45;80.99
17764;BME280;22245;52.832;13.816;2023-01-31T09:40:34;101348.06;;;4.48;81.17
17764;BME280;22245;52.832;13.816;2023-01-31T09:43:59;101339.91;;;4.53;80.92
17764;BME280;22245;52.832;13.816;2023-01-31T09:47:24;101343.16;;;4.58;80.29
17764;BME280;22245;52.832;13.816;2023-01-31T09:50:51;101323.88;;;4.58;80.68
17764;BME280;22245;52.832;13.816;2023-01-31T09:54:20;101329.91;;;4.60;79.93
17764;BME280;22245;52.832;13.816;2023-01-31T09:57:51;101314.00;;;4.61;80.14
17764;BME280;22245;52.832;13.816;2023-01-31T10:01:21;101308.81;;;4.60;79.98
17764;BME280;22245;52.832;13.816;2023-01-31T10:04:58;101305.25;;;4.61;80.55
17764;BME280;22245;52.832;13.816;2023-01-31T10:08:37;101297.94;;;4.66;80.26
17764;BME280;22245;52.832;13.816;2023-01-31T10:12:06;101290.97;;;4.65;79.89
17764;BME280;22245;52.832;13.816;2023-01-31T10:15:36;101287.22;;;4.69;79.95
17764;BME280;22245;52.832;13.816;2023-01-31T10:19:02;101285.19;;;4.74;79.79
17764;BME280;22245;52.832;13.816;2023-01-31T10:22:27;101285.03;;;4.77;79.28
17764;BME280;22245;52.832;13.816;2023-01-31T10:25:58;101278.75;;;4.80;79.37
17764;BME280;22245;52.832;13.816;2023-01-31T10:29:23;101268.88;;;4.84;79.23
17764;BME280;22245;52.832;13.816;2023-01-31T10:32:54;101258.09;;;4.88;78.68
17764;BME280;22245;52.832;13.816;2023-01-31T10:36:24;101244.78;;;4.90;78.04
17764;BME280;22245;52.832;13.816;2023-01-31T10:39:53;101243.84;;;4.91;78.09
17764;BME280;22245;52.832;13.816;2023-01-31T10:43:20;101234.00;;;4.95;78.19
17764;BME280;22245;52.832;13.816;2023-01-31T10:46:43;101220.72;;;4.96;78.00
17764;BME280;22245;52.832;13.816;2023-01-31T10:50:14;101202.09;;;4.99;78.06
17764;BME280;22245;52.832;13.816;2023-01-31T10:53:49;101204.38;;;5.05;77.82
17764;BME280;22245;52.832;13.816;2023-01-31T10:57:16;101194.50;;;5.09;77.48
17764;BME280;22245;52.832;13.816;2023-01-31T11:00:38;101204.22;;;5.09;77.10
17764;BME280;22245;52.832;13.816;2023-01-31T11:04:00;101197.06;;;5.11;77.34
17764;BME280;22245;52.832;13.816;2023-01-31T11:07:23;101175.59;;;5.17;76.71
17764;BME280;22245;52.832;13.816;2023-01-31T11:10:50;101165.91;;;5.17;77.19
17764;BME280;22245;52.832;13.816;2023-01-31T11:14:17;101166.16;;;5.13;77.02
17764;BME280;22245;52.832;13.816;2023-01-31T11:17:41;101150.31;;;5.13;76.67
17764;BME280;22245;52.832;13.816;2023-01-31T11:21:04;101149.38;;;5.14;76.47
17764;BME280;22245;52.832;13.816;2023-01-31T11:24:31;101135.41;;;5.12;76.94
17764;BME280;22245;52.832;13.816;2023-01-31T11:27:55;101135.03;;;5.18;77.44
17764;BME280;22245;52.832;13.816;2023-01-31T11:31:19;101122.53;;;5.21;76.72
17764;BME280;22245;52.832;13.816;2023-01-31T11:34:54;101111.03;;;5.22;77.15
17764;BME280;22245;52.832;13.816;2023-01-31T11:38:19;101119.97;;;5.20;77.31
17764;BME280;22245;52.832;13.816;2023-01-31T11:41:47;101113.56;;;5.24;78.08
17764;BME280;22245;52.832;13.816;2023-01-31T11:45:17;101114.50;;;5.23;78.37
17764;BME280;22245;52.832;13.816;2023-01-31T11:48:40;101101.22;;;5.25;78.41
17764;BME280;22245;52.832;13.816;2023-01-31T11:52:11;101091.31;;;5.28;78.92
17764;BME280;22245;52.832;13.816;2023-01-31T11:55:36;101094.31;;;5.22;79.22
17764;BME280;22245;52.832;13.816;2023-01-31T11:59:02;101077.47;;;5.25;79.21
17764;BME280;22245;52.832;13.816;2023-01-31T12:02:34;101067.72;;;5.25;79.82
17764;BME280;22245;52.832;13.816;2023-01-31T12:06:02;101054.47;;;5.27;79.71
17764;BME280;22245;52.832;13.816;2023-01-31T12:09:26;101040.38;;;5.26;80.17
17764;BME280;22245;52.832;13.816;2023-01-31T12:12:50;101021.72;;;5.29;80.22
17764;BME280;22245;52.832;13.816;2023-01-31T12:16:16;101021.72;;;5.29;80.13
17764;BME280;22245;52.832;13.816;2023-01-31T12:19:49;101009.31;;;5.31;80.31
17764;BME280;22245;52.832;13.816;2023-01-31T12:23:25;100992.59;;;5.31;80.36
17764;BME280;22245;52.832;13.816;2023-01-31T12:26:55;100986.19;;;5.35;80.52
17764;BME280;22245;52.832;13.816;2023-01-31T12:30:25;100990.53;;;5.36;80.91
17764;BME280;22245;52.832;13.816;2023-01-31T12:34:06;100989.50;;;5.39;81.22
17764;BME280;22245;52.832;13.816;2023-01-31T12:37:39;100980.66;;;5.40;81.50
17764;BME280;22245;52.832;13.816;2023-01-31T12:41:16;100971.78;;;5.41;81.36
17764;BME280;22245;52.832;13.816;2023-01-31T12:44:43;100966.56;;;5.39;81.81
17764;BME280;22245;52.832;13.816;2023-01-31T12:48:36;100960.44;;;5.39;81.70
17764;BME280;22245;52.832;13.816;2023-01-31T12:52:13;100949.78;;;5.40;81.48
17764;BME280;22245;52.832;13.816;2023-01-31T12:55:42;100943.66;;;5.40;81.64
17764;BME280;22245;52.832;13.816;2023-01-31T12:59:19;100945.38;;;5.41;81.80
17764;BME280;22245;52.832;13.816;2023-01-31T13:02:57;100927.91;;;5.38;81.75
17764;BME280;22245;52.832;13.816;2023-01-31T13:06:29;100926.31;;;5.35;82.13
17764;BME280;22245;52.832;13.816;2023-01-31T13:09:55;100916.69;;;5.34;82.35
17764;BME280;22245;52.832;13.816;2023-01-31T13:13:23;100911.41;;;5.34;82.37
17764;BME280;22245;52.832;13.816;2023-01-31T13:16:46;100914.03;;;5.34;82.88
17764;BME280;22245;52.832;13.816;2023-01-31T13:20:21;100910.66;;;5.32;83.25
17764;BME280;22245;52.832;13.816;2023-01-31T13:23:47;100905.25;;;5.34;82.54
17764;BME280;22245;52.832;13.816;2023-01-31T13:27:18;100894.81;;;5.32;82.94
17764;BME280;22245;52.832;13.816;2023-01-31T13:30:47;100899.22;;;5.32;83.31
17764;BME280;22245;52.832;13.816;2023-01-31T13:34:15;100885.25;;;5.30;83.91
17764;BME280;22245;52.832;13.816;2023-01-31T13:37:39;100880.84;;;5.30;83.83
17764;BME280;22245;52.832;13.816;2023-01-31T13:41:04;100879.13;;;5.29;83.77
17764;BME280;22245;52.832;13.816;2023-01-31T13:44:28;100872.25;;;5.27;83.85
17764;BME280;22245;52.832;13.816;2023-01-31T13:47:53;100866.28;;;5.23;83.91
17764;BME280;22245;52.832;13.816;2023-01-31T13:51:22;100860.25;;;5.21;84.38
17764;BME280;22245;52.832;13.816;2023-01-31T13:54:48;100867.41;;;5.19;84.64
17764;BME280;22245;52.832;13.816;2023-01-31T13:58:17;100861.38;;;5.17;85.38
17764;BME280;22245;52.832;13.816;2023-01-31T14:01:46;100859.88;;;5.13;86.07
17764;BME280;22245;52.832;13.816;2023-01-31T14:05:49;100862.59;;;5.11;86.37
17764;BME280;22245;52.832;13.816;2023-01-31T14:09:22;100856.66;;;5.07;86.02
17764;BME280;22245;52.832;13.816;2023-01-31T14:12:44;100851.38;;;5.07;86.48
17764;BME280;22245;52.832;13.816;2023-01-31T14:16:33;100849.88;;;5.03;87.00
17764;BME280;22245;52.832;13.816;2023-01-31T14:20:05;100853.28;;;5.05;87.08
17764;BME280;22245;52.832;13.816;2023-01-31T14:23:43;100840.91;;;5.06;87.55
17764;BME280;22245;52.832;13.816;2023-01-31T14:27:14;100834.97;;;5.02;87.67
17764;BME280;22245;52.832;13.816;2023-01-31T14:30:39;100829.72;;;5.02;87.63
17764;BME280;22245;52.832;13.816;2023-01-31T14:34:02;100822.06;;;4.98;87.88
17764;BME280;22245;52.832;13.816;2023-01-31T14:37:33;100829.22;;;4.96;88.76
17764;BME280;22245;52.832;13.816;2023-01-31T14:41:03;100829.13;;;4.97;88.12
17764;BME280;22245;52.832;13.816;2023-01-31T14:44:33;100815.19;;;4.95;88.35
17764;BME280;22245;52.832;13.816;2023-01-31T14:48:10;100813.50;;;4.94;88.86
17764;BME280;22245;52.832;13.816;2023-01-31T14:51:45;100801.88;;;4.97;88.41
17764;BME280;22245;52.832;13.816;2023-01-31T14:55:31;100807.28;;;4.95;88.85
17764;BME280;22245;52.832;13.816;2023-01-31T14:58:57;100784.06;;;5.00;89.03
17764;BME280;22245;52.832;13.816;2023-01-31T15:02:24;100789.53;;;4.97;89.00
17764;BME280;22245;52.832;13.816;2023-01-31T15:05:55;100777.09;;;4.99;89.25
17764;BME280;22245;52.832;13.816;2023-01-31T15:09:38;100793.13;;;4.96;89.39
17764;BME280;22245;52.832;13.816;2023-01-31T15:13:01;100771.34;;;4.92;89.89
17764;BME280;22245;52.832;13.816;2023-01-31T15:16:24;100772.19;;;4.93;89.88
17764;BME280;22245;52.832;13.816;2023-01-31T15:19:50;100773.72;;;4.97;89.92
17764;BME280;22245;52.832;13.816;2023-01-31T15:23:15;100777.09;;;4.99;90.13
17764;BME280;22245;52.832;13.816;2023-01-31T15:26:40;100770.13;;;4.98;90.22
17764;BME280;22245;52.832;13.816;2023-01-31T15:30:06;100775.97;;;5.03;90.16
17764;BME280;22245;52.832;13.816;2023-01-31T15:33:36;100773.31;;;5.03;90.11
17764;BME280;22245;52.832;13.816;2023-01-31T15:37:03;100765.22;;;5.06;90.68
17764;BME280;22245;52.832;13.816;2023-01-31T15:40:27;100762.78;;;5.03;91.25
17764;BME280;22245;52.832;13.816;2023-01-31T15:43:51;100750.59;;;5.01;91.23
17764;BME280;22245;52.832;13.816;2023-01-31T15:47:20;100734.56;;;5.04;91.36
17764;BME280;22245;52.832;13.816;2023-01-31T15:50:50;100741.47;;;5.06;91.75
17764;BME280;22245;52.832;13.816;2023-01-31T15:54:14;100737.00;;;5.07;91.85
17764;BME280;22245;52.832;13.816;2023-01-31T15:57:38;100735.78;;;5.13;91.82
17764;BME280;22245;52.832;13.816;2023-01-31T16:01:02;100741.94;;;5.13;91.48
17764;BME280;22245;52.832;13.816;2023-01-31T16:04:26;100739.00;;;5.18;91.52
17764;BME280;22245;52.832;13.816;2023-01-31T16:07:48;100732.47;;;5.24;91.61
17764;BME280;22245;52.832;13.816;2023-01-31T16:11:10;100723.63;;;5.25;91.25
17764;BME280;22245;52.832;13.816;2023-01-31T16:14:32;100728.03;;;5.24;91.46
17764;BME280;22245;52.832;13.816;2023-01-31T16:17:59;100740.41;;;5.24;91.36
17764;BME280;22245;52.832;13.816;2023-01-31T16:21:31;100746.44;;;5.26;91.53
17764;BME280;22245;52.832;13.816;2023-01-31T16:24:55;100740.00;;;5.30;91.67
17764;BME280;22245;52.832;13.816;2023-01-31T16:28:17;100769.81;;;5.32;91.78
17764;BME280;22245;52.832;13.816;2023-01-31T16:31:44;100757.63;;;5.29;92.32
17764;BME280;22245;52.832;13.816;2023-01-31T16:35:17;100757.84;;;5.26;92.80
17764;BME280;22245;52.832;13.816;2023-01-31T16:38:42;100754.16;;;5.29;92.51
17764;BME280;22245;52.832;13.816;2023-01-31T16:42:20;100750.31;;;5.34;92.49
17764;BME280;22245;52.832;13.816;2023-01-31T16:45:49;100743.13;;;5.36;92.21
17764;BME280;22245;52.832;13.816;2023-01-31T16:49:23;100741.22;;;5.39;91.87
17764;BME280;22245;52.832;13.816;2023-01-31T16:52:46;100722.63;;;5.40;91.88
17764;BME280;22245;52.832;13.816;2023-01-31T16:56:21;100724.44;;;5.40;91.77
17764;BME280;22245;52.832;13.816;2023-01-31T16:59:45;100727.81;;;5.42;91.74
17764;BME280;22245;52.832;13.816;2023-01-31T17:03:13;100726.69;;;5.46;91.84
17764;BME280;22245;52.832;13.816;2023-01-31T17:06:37;100736.59;;;5.42;92.25
17764;BME280;22245;52.832;13.816;2023-01-31T17:10:03;100711.66;;;5.46;92.28
17764;BME280;22245;52.832;13.816;2023-01-31T17:13:27;100705.28;;;5.50;91.88
17764;BME280;22245;52.832;13.816;2023-01-31T17:16:50;100696.69;;;5.47;92.17
17764;BME280;22245;52.832;13.816;2023-01-31T17:20:13;100699.66;;;5.55;91.93
17764;BME280;22245;52.832;13.816;2023-01-31T17:23:35;100695.03;;;5.59;92.26
17764;BME280;22245;52.832;13.816;2023-01-31T17:26:57;100687.41;;;5.54;92.20
17764;BME280;22245;52.832;13.816;2023-01-31T17:30:20;100668.63;;;5.59;92.22
17764;BME280;22245;52.832;13.816;2023-01-31T17:33:42;100657.00;;;5.61;91.78
17764;BME280;22245;52.832;13.816;2023-01-31T17:37:04;100656.03;;;5.62;91.93
17764;BME280;22245;52.832;13.816;2023-01-31T17:40:26;100656.59;;;5.68;91.51
17764;BME280;22245;52.832;13.816;2023-01-31T17:43:48;100659.34;;;5.66;91.54
17764;BME280;22245;52.832;13.816;2023-01-31T17:47:12;100645.94;;;5.69;90.79
17764;BME280;22245;52.832;13.816;2023-01-31T17:50:34;100651.28;;;5.68;90.83
17764;BME280;22245;52.832;13.816;2023-01-31T17:53:56;100657.53;;;5.67;90.68
17764;BME280;22245;52.832;13.816;2023-01-31T17:57:17;100631.22;;;5.65;90.62
17764;BME280;22245;52.832;13.816;2023-01-31T18:00:39;100616.13;;;5.67;90.53